Time;durP1;ratioP1;P1;durP2;ratioP2;P2;SDS_P1;SDS_P2;PMS_P1;PMS_P2;Temp;Humidity;BMP_temperature;BMP_pressure;BME280_temperature;BME280_humidity;BME280_pressure;Samples;Min_cycle;Max_cycle;Signal;HPM_P1;HPM_P2
2022/01/21 00:01:13;;;;;;;10.85;4.03;;;9.30;83.20;;;;;;5032831;28;20084;-66
2022/01/21 00:03:40;;;;;;;10.07;4.05;;;9.30;83.50;;;;;;5032574;28;20027;-65
2022/01/21 00:06:06;;;;;;;9.32;3.13;;;9.30;83.70;;;;;;5032769;28;20051;-66
2022/01/21 00:08:36;;;;;;;10.27;3.35;;;9.30;84.20;;;;;;5032968;28;20534;-65
2022/01/21 00:11:02;;;;;;;11.20;3.30;;;9.20;83.60;;;;;;5032830;28;20037;-66
2022/01/21 00:13:34;;;;;;;10.68;3.83;;;9.20;83.50;;;;;;5032599;28;20060;-65
2022/01/21 00:16:07;;;;;;;14.80;4.07;;;9.20;83.50;;;;;;5032328;28;20048;-65
2022/01/21 00:18:35;;;;;;;12.68;3.42;;;9.20;83.70;;;;;;5032566;28;20036;-65
2022/01/21 00:31:58;;;;;;;10.95;3.80;;;9.10;83.70;;;;;;5033100;28;20048;-65
2022/01/21 00:34:24;;;;;;;10.32;3.80;;;9.10;83.50;;;;;;5032457;28;20018;-65
2022/01/21 00:36:50;;;;;;;8.30;3.88;;;9.10;83.60;;;;;;5032386;28;20026;-65
2022/01/21 00:39:17;;;;;;;15.73;4.97;;;9.00;83.40;;;;;;5032677;28;20033;-66
2022/01/21 00:41:55;;;;;;;9.77;3.80;;;9.00;84.00;;;;;;5032665;28;20013;-65
2022/01/21 00:44:20;;;;;;;13.90;4.63;;;9.00;83.90;;;;;;5031757;28;20013;-65
2022/01/21 00:46:46;;;;;;;9.95;3.90;;;9.00;84.00;;;;;;5032453;28;20453;-65
2022/01/21 00:49:12;;;;;;;10.55;3.33;;;9.00;84.40;;;;;;5032630;28;20021;-65
2022/01/21 00:51:37;;;;;;;9.00;2.97;;;9.10;84.10;;;;;;5034098;28;20532;-65
2022/01/21 00:54:03;;;;;;;8.60;2.53;;;9.10;84.30;;;;;;5036135;28;20538;-65
2022/01/21 00:56:28;;;;;;;10.52;3.28;;;9.00;84.50;;;;;;5036183;28;20030;-64
2022/01/21 00:58:54;;;;;;;8.85;3.08;;;9.00;84.40;;;;;;5035752;28;20017;-64
2022/01/21 01:01:19;;;;;;;11.90;2.60;;;9.00;84.00;;;;;;5036366;28;20096;-65
2022/01/21 01:03:45;;;;;;;9.57;3.00;;;8.90;83.80;;;;;;5036101;28;20386;-64
2022/01/21 01:06:10;;;;;;;10.57;2.80;;;8.90;83.90;;;;;;5035503;28;20037;-65
2022/01/21 01:08:36;;;;;;;8.98;2.40;;;8.90;84.00;;;;;;5036155;28;20026;-65
2022/01/21 01:21:44;;;;;;;7.78;2.28;;;8.90;85.20;;;;;;5036130;28;20036;-64
2022/01/21 01:29:24;;;;;;;9.07;2.15;;;8.90;85.20;;;;;;5035900;28;20095;-64
2022/01/21 01:31:51;;;;;;;7.70;2.00;;;8.90;85.50;;;;;;5035698;28;20029;-64
2022/01/21 01:34:17;;;;;;;10.68;2.15;;;8.90;85.80;;;;;;5035432;28;20033;-63
2022/01/21 01:36:45;;;;;;;7.38;1.88;;;8.90;85.70;;;;;;5017290;28;20029;-64
2022/01/21 01:41:55;;;;;;;8.07;2.03;;;8.90;85.80;;;;;;5035006;28;20076;-65
2022/01/21 01:50:09;;;;;;;9.45;1.90;;;8.90;85.30;;;;;;4993818;28;20141;-65
2022/01/21 01:52:34;;;;;;;6.93;1.50;;;8.90;85.00;;;;;;4993625;28;20050;-65
2022/01/21 01:55:00;;;;;;;7.50;1.55;;;8.90;85.40;;;;;;5006170;28;20037;-65
2022/01/21 01:57:26;;;;;;;7.43;1.98;;;8.90;85.00;;;;;;5034941;28;20096;-64
2022/01/21 01:59:51;;;;;;;10.73;1.67;;;8.90;85.20;;;;;;5035059;28;20117;-65
2022/01/21 02:02:18;;;;;;;5.53;1.80;;;8.80;85.20;;;;;;5034927;28;20545;-65
2022/01/21 02:04:46;;;;;;;6.70;1.42;;;8.80;85.70;;;;;;5034723;28;20033;-65
2022/01/21 02:07:12;;;;;;;8.50;1.30;;;8.80;86.40;;;;;;5034844;28;20037;-64
2022/01/21 02:09:38;;;;;;;8.00;1.60;;;8.80;86.50;;;;;;5034866;28;20022;-64
2022/01/21 02:12:05;;;;;;;7.32;1.58;;;8.80;86.90;;;;;;5034631;28;20091;-65
2022/01/21 02:14:37;;;;;;;7.25;2.03;;;8.80;86.80;;;;;;5034658;28;20029;-65
2022/01/21 02:17:16;;;;;;;8.13;1.52;;;8.80;87.20;;;;;;5034580;28;20022;-64
2022/01/21 02:22:32;;;;;;;4.57;1.60;;;8.80;87.60;;;;;;5034714;28;20055;-64
2022/01/21 02:25:10;;;;;;;10.73;1.50;;;8.90;88.00;;;;;;5030697;28;20033;-64
2022/01/21 02:27:35;;;;;;;9.88;1.85;;;8.80;87.80;;;;;;5034602;28;20188;-64
2022/01/21 02:30:05;;;;;;;7.00;1.85;;;8.80;87.50;;;;;;5034245;28;20057;-65
2022/01/21 02:32:30;;;;;;;9.00;1.50;;;8.90;87.10;;;;;;5034401;28;20459;-65
2022/01/21 02:34:56;;;;;;;11.13;1.95;;;8.80;87.00;;;;;;5034492;28;20032;-64
2022/01/21 02:37:22;;;;;;;5.90;1.50;;;8.80;87.40;;;;;;5034409;28;20029;-64
2022/01/21 02:39:48;;;;;;;13.10;2.95;;;8.80;87.50;;;;;;5033966;28;20132;-64
2022/01/21 02:42:14;;;;;;;8.68;1.70;;;8.80;88.30;;;;;;5034340;28;20379;-64
2022/01/21 02:44:40;;;;;;;10.77;1.95;;;8.80;87.80;;;;;;5034261;28;20493;-64
2022/01/21 02:47:07;;;;;;;10.23;2.55;;;8.80;87.80;;;;;;5033992;28;20037;-64
2022/01/21 02:49:34;;;;;;;9.60;2.13;;;8.80;87.90;;;;;;5033891;28;20022;-64
2022/01/21 02:52:01;;;;;;;7.47;1.80;;;8.80;88.10;;;;;;5033786;28;20481;-64
2022/01/21 02:54:31;;;;;;;13.40;1.88;;;8.80;87.80;;;;;;5031983;28;20034;-64
2022/01/21 02:56:58;;;;;;;7.22;1.73;;;8.80;87.70;;;;;;5029257;28;20057;-64
2022/01/21 02:59:24;;;;;;;7.57;2.00;;;8.80;88.40;;;;;;5031336;28;20534;-64
2022/01/21 03:01:50;;;;;;;6.53;1.92;;;8.80;88.50;;;;;;5033282;28;20028;-64
2022/01/21 03:04:27;;;;;;;11.50;2.70;;;8.80;87.80;;;;;;5033933;28;20017;-64
2022/01/21 03:06:52;;;;;;;11.27;2.08;;;8.70;87.70;;;;;;5033745;28;20045;-64
2022/01/21 03:09:18;;;;;;;6.25;2.00;;;8.70;87.70;;;;;;5033223;28;20028;-64
2022/01/21 03:11:43;;;;;;;10.38;1.30;;;8.70;88.00;;;;;;5033823;28;20025;-64
2022/01/21 03:14:09;;;;;;;9.02;1.83;;;8.70;88.50;;;;;;5033092;28;20032;-64
2022/01/21 03:16:34;;;;;;;7.93;2.28;;;8.80;88.40;;;;;;5032548;28;20036;-64
2022/01/21 03:19:01;;;;;;;10.93;2.03;;;8.70;87.90;;;;;;5033194;28;20025;-64
2022/01/21 03:21:26;;;;;;;7.90;1.60;;;8.70;87.90;;;;;;5033352;28;20029;-64
2022/01/21 03:23:53;;;;;;;12.27;2.35;;;8.70;88.40;;;;;;5033006;28;20497;-64
2022/01/21 03:26:24;;;;;;;8.80;2.00;;;8.60;88.20;;;;;;5033521;28;20053;-64
2022/01/21 03:28:53;;;;;;;9.65;2.03;;;8.70;88.30;;;;;;5033250;28;20017;-64
2022/01/21 03:31:19;;;;;;;10.13;2.53;;;8.70;88.50;;;;;;5033566;28;20041;-64
2022/01/21 03:33:45;;;;;;;9.85;2.33;;;8.70;88.10;;;;;;5033382;28;20022;-64
2022/01/21 03:36:12;;;;;;;5.03;1.65;;;8.70;88.00;;;;;;5033380;28;20033;-64
2022/01/21 03:38:38;;;;;;;6.72;1.75;;;8.60;88.20;;;;;;5032830;28;20060;-64
2022/01/21 03:41:05;;;;;;;9.70;2.63;;;8.60;88.40;;;;;;5033413;28;20056;-64
2022/01/21 03:43:31;;;;;;;13.07;2.67;;;8.60;88.40;;;;;;5020061;28;20029;-64
2022/01/21 03:45:57;;;;;;;8.55;1.88;;;8.60;88.30;;;;;;5015492;28;20037;-64
2022/01/21 03:48:23;;;;;;;6.72;2.00;;;8.50;88.00;;;;;;5032967;28;20025;-64
2022/01/21 03:50:49;;;;;;;6.63;1.83;;;8.60;88.00;;;;;;5033046;28;20029;-64
2022/01/21 03:53:15;;;;;;;5.40;1.33;;;8.60;88.10;;;;;;5031888;28;20026;-64
2022/01/21 03:55:41;;;;;;;6.35;1.73;;;8.50;88.10;;;;;;5021948;28;20057;-64
2022/01/21 03:58:08;;;;;;;4.88;1.48;;;8.50;88.10;;;;;;5021251;28;20033;-64
2022/01/21 04:00:43;;;;;;;8.23;1.80;;;8.50;88.50;;;;;;5026762;28;20029;-64
2022/01/21 04:03:09;;;;;;;8.07;1.63;;;8.50;88.40;;;;;;5031424;28;20021;-64
2022/01/21 04:05:35;;;;;;;7.60;2.05;;;8.50;88.50;;;;;;5030155;28;20022;-65
2022/01/21 04:08:05;;;;;;;8.10;1.90;;;8.50;88.40;;;;;;5028770;28;20367;-64
2022/01/21 04:10:31;;;;;;;7.22;1.80;;;8.40;88.30;;;;;;5020253;28;20431;-64
2022/01/21 04:12:57;;;;;;;6.93;2.08;;;8.40;88.10;;;;;;5021275;28;20028;-64
2022/01/21 04:15:23;;;;;;;11.60;2.40;;;8.40;88.30;;;;;;5012687;28;20022;-64
2022/01/21 04:17:49;;;;;;;7.68;1.83;;;8.40;88.30;;;;;;4995208;28;20030;-64
2022/01/21 04:20:16;;;;;;;9.48;2.35;;;8.30;88.40;;;;;;5012745;28;20029;-64
2022/01/21 04:22:42;;;;;;;9.82;2.30;;;8.40;88.30;;;;;;5013332;28;20030;-64
2022/01/21 04:25:09;;;;;;;42.10;6.40;;;8.40;88.70;;;;;;5012973;28;20034;-64
2022/01/21 04:27:34;;;;;;;8.88;1.83;;;8.30;88.40;;;;;;5016690;28;20030;-64
2022/01/21 04:30:00;;;;;;;6.90;1.92;;;8.40;87.50;;;;;;5017074;28;20426;-64
2022/01/21 04:32:25;;;;;;;9.32;2.08;;;8.40;86.80;;;;;;5017142;28;20057;-64
2022/01/21 04:34:51;;;;;;;7.57;1.85;;;8.40;86.60;;;;;;5016593;28;20360;-64
2022/01/21 04:37:17;;;;;;;8.57;2.72;;;8.40;86.40;;;;;;5017114;28;20056;-64
2022/01/21 04:39:56;;;;;;;6.28;1.90;;;8.30;86.40;;;;;;4999268;28;20026;-64
2022/01/21 04:47:35;;;;;;;7.40;1.80;;;8.30;86.10;;;;;;5016882;28;20402;-64
2022/01/21 04:50:08;;;;;;;10.23;2.25;;;8.30;85.60;;;;;;5016401;28;20455;-64
2022/01/21 04:52:34;;;;;;;8.02;1.70;;;8.20;85.90;;;;;;5016950;28;20360;-64
2022/01/21 04:54:59;;;;;;;8.93;2.08;;;8.30;85.90;;;;;;4998839;28;20466;-64
2022/01/21 04:57:25;;;;;;;8.82;2.45;;;8.30;85.90;;;;;;5016754;28;20048;-64
2022/01/21 04:59:50;;;;;;;10.30;2.22;;;8.30;86.30;;;;;;5016526;28;20040;-64
2022/01/21 05:02:16;;;;;;;7.80;1.98;;;8.30;86.30;;;;;;5016614;28;20033;-64
2022/01/21 05:04:41;;;;;;;7.93;2.20;;;8.30;86.50;;;;;;5016180;28;20026;-64
2022/01/21 05:07:09;;;;;;;7.65;2.00;;;8.30;86.60;;;;;;5016330;28;20042;-64
2022/01/21 05:09:35;;;;;;;6.68;2.17;;;8.30;86.50;;;;;;5016417;28;20391;-64
2022/01/21 05:12:09;;;;;;;7.72;2.50;;;8.30;86.40;;;;;;5016212;28;20022;-64
2022/01/21 05:15:04;;;;;;;7.55;2.15;;;8.30;86.10;;;;;;5016437;28;20391;-64
2022/01/21 05:17:30;;;;;;;9.00;2.10;;;8.30;86.50;;;;;;5016065;28;20549;-64
2022/01/21 05:19:55;;;;;;;6.50;1.83;;;8.20;86.50;;;;;;5016007;28;20029;-64
2022/01/21 05:22:21;;;;;;;6.47;1.65;;;8.20;86.70;;;;;;5016369;28;20026;-64
2022/01/21 05:24:46;;;;;;;7.35;2.40;;;8.30;86.90;;;;;;5016196;28;20038;-64
2022/01/21 05:27:13;;;;;;;8.32;2.72;;;8.30;87.10;;;;;;4998207;28;20034;-64
2022/01/21 05:29:40;;;;;;;6.13;2.47;;;8.20;87.20;;;;;;5016344;28;20057;-64
2022/01/21 05:32:06;;;;;;;7.53;2.53;;;8.20;87.40;;;;;;5015943;28;20018;-64
2022/01/21 05:34:33;;;;;;;9.95;2.35;;;8.20;87.40;;;;;;5015712;28;20018;-64
2022/01/21 05:36:58;;;;;;;5.35;1.80;;;8.20;87.70;;;;;;5015276;28;20533;-64
2022/01/21 05:39:24;;;;;;;7.95;1.83;;;8.30;87.60;;;;;;5016002;28;20026;-64
2022/01/21 05:41:51;;;;;;;6.88;1.63;;;8.30;87.80;;;;;;5015720;28;20026;-64
2022/01/21 05:46:57;;;;;;;6.70;2.08;;;8.30;87.90;;;;;;5015638;28;20049;-64
2022/01/21 05:49:24;;;;;;;6.60;1.38;;;8.30;87.70;;;;;;5015618;28;20029;-66
2022/01/21 05:51:53;;;;;;;7.07;1.60;;;8.30;87.90;;;;;;5015544;28;20022;-64
2022/01/21 05:54:25;;;;;;;8.65;1.80;;;8.20;87.80;;;;;;5015498;28;20467;-64
2022/01/21 05:56:51;;;;;;;11.48;1.83;;;8.20;87.80;;;;;;5015475;28;20022;-64
2022/01/21 05:59:17;;;;;;;8.77;1.70;;;8.20;87.70;;;;;;5015507;28;20383;-64
2022/01/21 06:01:43;;;;;;;3.55;1.17;;;8.20;87.80;;;;;;5017480;28;20030;-64
2022/01/21 06:04:09;;;;;;;5.97;1.38;;;8.20;87.80;;;;;;5015109;28;20482;-63
2022/01/21 06:06:35;;;;;;;5.20;1.17;;;8.20;87.80;;;;;;5013564;28;20034;-63
2022/01/21 06:09:02;;;;;;;5.25;1.70;;;8.20;88.10;;;;;;5015252;28;20121;-64
2022/01/21 06:11:27;;;;;;;5.95;2.05;;;8.20;88.00;;;;;;5015134;28;20033;-64
2022/01/21 06:13:53;;;;;;;5.63;2.30;;;8.10;87.80;;;;;;5014993;28;20030;-64
2022/01/21 06:16:19;;;;;;;6.63;1.80;;;8.10;87.60;;;;;;5014436;28;20030;-64
2022/01/21 06:18:45;;;;;;;7.35;2.08;;;8.10;87.50;;;;;;5015143;28;20033;-64
2022/01/21 06:21:10;;;;;;;5.47;2.25;;;8.10;87.40;;;;;;4997407;28;20097;-64
2022/01/21 06:23:36;;;;;;;4.32;1.50;;;8.00;87.50;;;;;;5015124;28;20109;-64
2022/01/21 06:26:02;;;;;;;3.80;1.80;;;8.00;87.70;;;;;;5013098;28;20045;-64
2022/01/21 06:28:28;;;;;;;7.90;1.73;;;8.00;87.50;;;;;;5014476;28;20022;-64
2022/01/21 06:30:54;;;;;;;7.47;2.75;;;8.00;87.80;;;;;;5014535;28;20034;-64
2022/01/21 06:33:20;;;;;;;5.05;2.40;;;8.00;87.60;;;;;;5014675;28;20022;-64
2022/01/21 06:35:51;;;;;;;5.88;2.30;;;8.00;87.50;;;;;;5014954;28;20033;-64
2022/01/21 06:38:18;;;;;;;4.97;2.15;;;7.90;87.30;;;;;;5014604;28;20475;-64
2022/01/21 06:40:44;;;;;;;7.68;2.60;;;7.90;87.50;;;;;;5014838;28;20021;-64
2022/01/21 06:43:09;;;;;;;9.13;2.75;;;7.90;87.70;;;;;;5014450;28;20113;-64
2022/01/21 06:45:35;;;;;;;9.52;3.13;;;7.90;87.40;;;;;;5018064;28;20378;-63
2022/01/21 06:48:02;;;;;;;6.05;3.00;;;7.90;87.60;;;;;;5033519;28;20032;-64
2022/01/21 06:50:29;;;;;;;8.98;4.50;;;7.80;87.50;;;;;;5033849;28;20022;-64
2022/01/21 06:52:55;;;;;;;10.95;6.00;;;7.80;88.30;;;;;;5033981;28;20029;-64
2022/01/21 06:55:21;;;;;;;14.38;7.70;;;7.80;88.60;;;;;;5029180;28;20026;-63
2022/01/21 06:57:46;;;;;;;10.55;6.10;;;7.80;89.00;;;;;;5023949;28;20486;-65
2022/01/21 07:00:18;;;;;;;12.48;5.80;;;7.70;89.00;;;;;;5022251;28;20056;-64
2022/01/21 07:02:47;;;;;;;12.55;5.78;;;7.70;89.30;;;;;;5028196;28;20597;-64
2022/01/21 07:05:13;;;;;;;9.43;5.65;;;7.70;89.30;;;;;;5032992;28;20592;-64
2022/01/21 07:07:39;;;;;;;11.88;5.85;;;7.60;89.60;;;;;;5033158;28;20037;-64
2022/01/21 07:10:06;;;;;;;8.98;5.35;;;7.60;89.40;;;;;;5028524;28;20391;-64
2022/01/21 07:12:35;;;;;;;8.43;4.68;;;7.60;89.20;;;;;;5027791;28;20032;-65
2022/01/21 07:15:01;;;;;;;6.75;3.65;;;7.60;89.40;;;;;;5029416;28;20032;-65
2022/01/21 07:17:27;;;;;;;9.25;3.85;;;7.60;89.90;;;;;;5031587;28;20026;-64
2022/01/21 07:19:53;;;;;;;10.38;3.97;;;7.60;89.90;;;;;;5019766;28;20044;-64
2022/01/21 07:22:18;;;;;;;9.93;4.18;;;7.60;89.50;;;;;;5019992;28;20029;-64
2022/01/21 07:24:44;;;;;;;8.80;3.00;;;7.60;89.50;;;;;;5021017;28;20033;-64
2022/01/21 07:27:10;;;;;;;10.20;3.30;;;7.60;89.70;;;;;;5028121;28;20059;-64
2022/01/21 07:29:35;;;;;;;9.77;2.65;;;7.60;89.90;;;;;;5030145;28;20032;-66
2022/01/21 07:32:01;;;;;;;13.30;3.35;;;7.60;90.10;;;;;;5051002;28;20501;-66
2022/01/21 07:34:27;;;;;;;7.90;3.08;;;7.20;90.80;;;;;;5043345;28;20105;-66
2022/01/21 07:36:54;;;;;;;9.63;3.10;;;7.20;91.30;;;;;;5031907;28;20112;-65
2022/01/21 07:39:20;;;;;;;11.68;2.58;;;7.10;91.60;;;;;;5031743;28;20021;-65
2022/01/21 07:41:46;;;;;;;6.72;2.47;;;7.10;91.80;;;;;;5032303;28;20036;-65
2022/01/21 07:44:14;;;;;;;7.45;2.58;;;7.10;92.10;;;;;;5031372;28;20018;-64
2022/01/21 07:46:41;;;;;;;8.35;2.28;;;7.10;92.30;;;;;;5031933;28;20039;-64
2022/01/21 07:49:08;;;;;;;9.63;2.63;;;7.10;92.30;;;;;;5031931;28;20026;-67
2022/01/21 07:51:34;;;;;;;7.10;2.53;;;7.10;92.40;;;;;;5023995;28;20390;-64
2022/01/21 07:54:00;;;;;;;9.57;2.22;;;7.40;91.80;;;;;;5021170;28;20124;-62
2022/01/21 07:56:25;;;;;;;9.45;2.15;;;7.70;91.20;;;;;;5019367;28;20022;-63
2022/01/21 07:58:52;;;;;;;7.68;2.47;;;7.80;90.90;;;;;;5018373;28;20044;-63
2022/01/21 08:01:18;;;;;;;7.65;2.95;;;7.80;90.80;;;;;;5021857;28;20025;-63
2022/01/21 08:03:44;;;;;;;10.02;2.42;;;7.90;90.70;;;;;;5022261;28;20026;-63
2022/01/21 08:06:09;;;;;;;6.57;2.05;;;7.90;90.70;;;;;;5027062;28;20073;-63
2022/01/21 08:08:35;;;;;;;8.18;2.47;;;7.80;91.20;;;;;;5018325;28;20048;-63
2022/01/21 08:11:01;;;;;;;11.32;2.58;;;7.80;90.90;;;;;;5005543;28;20482;-64
2022/01/21 08:13:27;;;;;;;6.85;2.78;;;7.90;90.70;;;;;;5019541;28;20026;-63
2022/01/21 08:15:54;;;;;;;9.20;2.85;;;7.90;90.60;;;;;;5018396;28;20052;-63
2022/01/21 08:18:20;;;;;;;6.00;2.20;;;7.90;90.50;;;;;;5027937;28;20542;-63
2022/01/21 08:20:45;;;;;;;6.90;2.72;;;7.90;90.60;;;;;;5027207;28;20101;-63
2022/01/21 08:23:12;;;;;;;7.20;2.08;;;7.80;90.70;;;;;;5031656;28;20129;-63
2022/01/21 08:25:39;;;;;;;9.02;3.03;;;7.80;90.80;;;;;;5017067;28;20430;-63
2022/01/21 08:28:05;;;;;;;11.52;3.28;;;7.90;90.80;;;;;;5018021;28;20038;-65
2022/01/21 08:30:31;;;;;;;12.38;3.10;;;7.80;91.00;;;;;;5021995;28;20017;-64
2022/01/21 08:32:57;;;;;;;9.80;3.55;;;7.80;90.90;;;;;;5026457;28;20441;-64
2022/01/21 08:35:23;;;;;;;10.48;2.60;;;7.90;91.00;;;;;;5018111;28;20018;-64
2022/01/21 08:37:52;;;;;;;12.77;2.72;;;7.80;91.30;;;;;;5018363;28;20067;-64
2022/01/21 08:40:18;;;;;;;13.73;2.35;;;7.80;91.60;;;;;;5016003;28;20762;-64
2022/01/21 08:42:43;;;;;;;8.88;2.53;;;7.80;91.80;;;;;;5007349;28;20017;-64
2022/01/21 08:45:11;;;;;;;5.88;2.10;;;7.80;91.90;;;;;;5019875;28;20355;-64
2022/01/21 08:47:38;;;;;;;12.43;2.72;;;7.80;92.00;;;;;;5020503;28;20046;-64
2022/01/21 08:50:07;;;;;;;7.38;2.88;;;7.80;91.90;;;;;;5025274;28;20013;-64
2022/01/21 08:52:37;;;;;;;8.77;2.65;;;7.90;91.90;;;;;;5029780;28;20366;-64
2022/01/21 08:55:11;;;;;;;8.60;2.60;;;8.00;92.40;;;;;;5014737;28;20036;-64
2022/01/21 08:57:39;;;;;;;10.68;3.10;;;8.10;92.30;;;;;;4996935;28;20014;-64
2022/01/21 09:00:11;;;;;;;12.77;3.08;;;8.20;92.40;;;;;;5017437;28;20018;-64
2022/01/21 09:02:37;;;;;;;8.00;2.42;;;8.20;92.10;;;;;;5017659;28;20100;-64
2022/01/21 09:05:03;;;;;;;10.90;2.90;;;8.40;92.10;;;;;;5027073;28;20718;-66
2022/01/21 09:07:29;;;;;;;10.35;3.30;;;8.40;91.20;;;;;;5024471;28;20045;-65
2022/01/21 09:09:54;;;;;;;10.57;3.42;;;8.30;91.10;;;;;;5011873;28;20022;-64
2022/01/21 09:12:20;;;;;;;14.23;3.33;;;8.20;91.30;;;;;;5012650;28;20026;-65
2022/01/21 09:14:46;;;;;;;8.93;3.50;;;8.20;91.50;;;;;;5017932;28;20029;-64
2022/01/21 09:17:12;;;;;;;10.95;4.13;;;8.20;91.60;;;;;;5023929;28;20075;-65
2022/01/21 09:19:38;;;;;;;13.73;4.20;;;8.10;92.20;;;;;;5034379;28;20018;-65
2022/01/21 09:22:03;;;;;;;15.50;3.60;;;8.20;92.10;;;;;;5024719;28;20118;-64
2022/01/21 09:24:31;;;;;;;12.27;3.35;;;8.50;92.30;;;;;;5032691;28;20030;-65
2022/01/21 09:26:57;;;;;;;13.90;3.30;;;8.50;92.10;;;;;;5022575;28;20116;-65
2022/01/21 09:29:23;;;;;;;14.02;3.85;;;8.60;92.10;;;;;;5023102;28;20577;-64
2022/01/21 09:31:49;;;;;;;13.38;4.30;;;8.50;91.90;;;;;;5022233;28;20022;-64
2022/01/21 09:34:15;;;;;;;15.65;6.25;;;8.70;92.20;;;;;;5021257;28;20030;-65
2022/01/21 09:36:42;;;;;;;13.80;5.30;;;8.60;92.00;;;;;;5027904;28;20025;-65
2022/01/21 09:39:07;;;;;;;11.98;4.47;;;8.70;92.00;;;;;;5029538;28;20128;-65
2022/01/21 09:41:34;;;;;;;10.30;5.30;;;8.80;92.10;;;;;;5023689;28;20061;-65
2022/01/21 09:44:03;;;;;;;12.93;4.82;;;8.80;91.90;;;;;;5033594;28;20428;-65
2022/01/21 09:46:35;;;;;;;14.10;3.45;;;8.90;92.30;;;;;;5031936;28;20099;-65
2022/01/21 09:49:25;;;;;;;10.85;4.45;;;9.10;92.10;;;;;;5026155;28;20053;-65
2022/01/21 09:51:52;;;;;;;14.05;5.38;;;9.10;91.90;;;;;;5022598;28;20033;-64
2022/01/21 09:54:20;;;;;;;8.75;3.85;;;9.10;91.80;;;;;;5023375;28;20422;-65
2022/01/21 09:56:47;;;;;;;15.40;3.65;;;9.20;91.80;;;;;;5020547;28;20091;-65
2022/01/21 09:59:17;;;;;;;10.10;3.40;;;9.20;91.80;;;;;;5019857;28;20033;-65
2022/01/21 10:01:44;;;;;;;10.57;3.40;;;9.30;91.90;;;;;;5015311;28;20037;-65
2022/01/21 10:04:11;;;;;;;10.77;4.25;;;9.40;92.00;;;;;;5019848;28;20021;-65
2022/01/21 10:06:37;;;;;;;11.88;4.35;;;9.50;92.00;;;;;;5025618;28;20088;-65
2022/01/21 10:09:03;;;;;;;12.10;4.85;;;9.40;91.90;;;;;;5021131;28;20053;-65
2022/01/21 10:11:29;;;;;;;10.77;4.07;;;9.40;91.90;;;;;;5023749;28;20017;-65
2022/01/21 10:13:55;;;;;;;11.15;3.88;;;9.40;91.90;;;;;;5018220;28;20046;-65
2022/01/21 10:16:21;;;;;;;12.68;3.97;;;9.50;92.10;;;;;;5020908;28;20773;-65
2022/01/21 10:19:07;;;;;;;8.65;3.50;;;9.50;92.00;;;;;;5018854;28;20053;-65
2022/01/21 10:21:36;;;;;;;9.68;4.28;;;9.60;92.10;;;;;;5025537;28;20702;-65
2022/01/21 10:24:10;;;;;;;17.40;4.75;;;9.60;91.90;;;;;;5016568;28;20049;-65
2022/01/21 10:26:49;;;;;;;14.10;4.53;;;9.70;91.90;;;;;;5026240;28;20034;-65
2022/01/21 10:29:16;;;;;;;11.77;4.60;;;9.70;91.90;;;;;;5023333;28;20116;-66
2022/01/21 10:31:56;;;;;;;16.17;4.85;;;9.60;91.70;;;;;;5019770;28;20025;-64
2022/01/21 10:34:36;;;;;;;11.88;4.93;;;9.50;92.00;;;;;;5015955;28;20478;-66
2022/01/21 10:37:08;;;;;;;15.43;4.93;;;9.40;92.10;;;;;;5018924;28;20228;-65
2022/01/21 10:39:58;;;;;;;11.43;4.28;;;9.40;92.20;;;;;;5023298;28;20040;-65
2022/01/21 10:42:25;;;;;;;11.98;3.83;;;9.50;92.20;;;;;;5011555;28;20112;-66
2022/01/21 10:44:51;;;;;;;12.82;3.90;;;9.50;92.20;;;;;;5031893;28;20026;-66
2022/01/21 10:47:17;;;;;;;13.05;4.22;;;9.50;92.10;;;;;;5021626;28;20098;-64
2022/01/21 10:50:08;;;;;;;11.90;3.95;;;9.50;92.40;;;;;;5025959;28;20095;-66
2022/01/21 10:52:39;;;;;;;11.10;3.13;;;9.50;92.20;;;;;;5015615;28;20022;-65
2022/01/21 10:55:34;;;;;;;12.73;3.50;;;9.70;92.30;;;;;;5022338;28;20061;-65
2022/01/21 10:58:07;;;;;;;12.48;3.92;;;9.60;92.30;;;;;;5021468;28;20487;-65
2022/01/21 11:00:33;;;;;;;13.35;3.97;;;9.60;92.20;;;;;;5017761;28;20064;-65
2022/01/21 11:03:14;;;;;;;11.43;3.42;;;9.60;92.70;;;;;;5022129;28;20018;-66
2022/01/21 11:05:44;;;;;;;17.13;4.03;;;9.60;92.20;;;;;;5022365;28;20499;-65
2022/01/21 11:08:11;;;;;;;13.95;3.25;;;9.70;92.00;;;;;;5020296;28;20036;-66
2022/01/21 11:10:40;;;;;;;16.77;3.55;;;9.70;92.10;;;;;;5024857;28;20104;-65
2022/01/21 11:13:20;;;;;;;10.93;3.30;;;9.70;92.00;;;;;;5026894;28;20112;-65
2022/01/21 11:15:48;;;;;;;12.77;3.58;;;9.80;92.00;;;;;;5024209;28;20026;-65
2022/01/21 11:18:19;;;;;;;12.90;3.53;;;9.80;92.10;;;;;;5039064;28;20032;-64
2022/01/21 11:20:53;;;;;;;13.90;3.17;;;9.90;91.90;;;;;;5030280;28;20059;-64
2022/01/21 11:23:21;;;;;;;13.02;3.85;;;9.90;91.90;;;;;;5020385;28;20485;-66
2022/01/21 11:25:51;;;;;;;12.32;3.70;;;9.90;92.10;;;;;;5033153;28;20475;-65
2022/01/21 11:28:41;;;;;;;10.80;2.85;;;9.90;92.40;;;;;;5022210;28;20486;-65
2022/01/21 11:31:08;;;;;;;9.32;3.05;;;9.80;92.90;;;;;;5022137;28;20545;-65
2022/01/21 11:33:35;;;;;;;11.45;3.42;;;9.80;93.40;;;;;;5022501;28;20029;-65
2022/01/21 11:36:03;;;;;;;9.98;3.15;;;9.80;93.30;;;;;;5018836;28;20041;-65
2022/01/21 11:38:30;;;;;;;8.48;2.45;;;9.90;93.30;;;;;;5012909;28;20057;-67
2022/01/21 11:40:56;;;;;;;12.85;2.88;;;9.90;93.60;;;;;;5013659;28;20069;-68
2022/01/21 11:43:23;;;;;;;8.13;3.30;;;9.90;93.50;;;;;;5021463;28;20104;-66
2022/01/21 11:51:26;;;;;;;13.27;4.05;;;10.10;93.50;;;;;;5033124;28;20033;-67
2022/01/21 11:53:57;;;;;;;11.40;2.80;;;10.10;93.60;;;;;;5032983;28;20501;-66
2022/01/21 11:56:55;;;;;;;12.32;2.70;;;10.20;93.30;;;;;;5032977;28;20030;-65
2022/01/21 11:59:36;;;;;;;10.10;2.60;;;10.30;93.80;;;;;;5024725;28;20041;-66
2022/01/21 12:02:18;;;;;;;9.07;2.30;;;10.30;93.30;;;;;;5023531;28;20048;-66
2022/01/21 12:04:55;;;;;;;8.50;2.78;;;10.30;93.10;;;;;;5019009;28;20052;-65
2022/01/21 12:07:40;;;;;;;15.52;3.55;;;10.40;93.30;;;;;;5023065;28;20041;-66
2022/01/21 12:10:23;;;;;;;12.98;3.13;;;10.30;93.00;;;;;;5038305;28;20029;-66
2022/01/21 12:12:54;;;;;;;;;;;10.30;92.90;;;;;;5030699;28;20018;-66
2022/01/21 12:21:06;;;;;;;11.32;2.45;;;10.50;93.80;;;;;;5027171;28;20038;-66
2022/01/21 12:23:43;;;;;;;9.40;2.35;;;10.60;93.90;;;;;;5025807;28;20028;-66
2022/01/21 12:26:14;;;;;;;16.85;2.33;;;10.70;93.50;;;;;;5020560;28;20099;-67
2022/01/21 12:28:57;;;;;;;10.60;2.53;;;10.70;93.30;;;;;;5019747;28;20041;-66
2022/01/21 12:31:59;;;;;;;12.43;2.75;;;10.70;93.50;;;;;;5022280;28;20053;-67
2022/01/21 12:34:26;;;;;;;11.57;2.85;;;10.70;93.60;;;;;;5020380;28;20014;-67
2022/01/21 12:36:57;;;;;;;10.60;2.55;;;10.70;93.50;;;;;;5027665;28;20021;-67
2022/01/21 12:39:45;;;;;;;10.93;2.97;;;10.70;93.70;;;;;;5019579;28;20471;-67
2022/01/21 12:42:32;;;;;;;10.77;2.53;;;10.90;93.70;;;;;;5017445;28;20057;-66
2022/01/21 12:45:06;;;;;;;10.18;2.38;;;10.90;93.50;;;;;;5020344;28;20093;-66
2022/01/21 12:47:39;;;;;;;8.27;2.13;;;11.00;93.50;;;;;;5021568;28;20049;-67
2022/01/21 12:50:06;;;;;;;;;;;11.00;93.30;;;;;;5024308;28;20041;-66
2022/01/21 12:52:44;;;;;;;10.48;2.42;;;10.90;93.30;;;;;;5024129;28;19995;-66
2022/01/21 12:57:55;;;;;;;8.68;2.10;;;10.60;93.90;;;;;;5024075;28;20504;-66
2022/01/21 13:00:20;;;;;;;10.30;2.90;;;10.60;94.00;;;;;;5022699;28;20398;-66
2022/01/21 13:02:51;;;;;;;9.52;2.15;;;10.50;93.90;;;;;;5019328;28;20490;-65
2022/01/21 13:05:21;;;;;;;10.43;2.00;;;10.70;94.00;;;;;;5018126;28;20113;-66
2022/01/21 13:08:22;;;;;;;7.22;2.28;;;10.90;93.90;;;;;;5017089;28;20076;-66
2022/01/21 13:10:48;;;;;;;8.13;2.45;;;11.00;93.30;;;;;;5019067;28;20517;-66
2022/01/21 13:13:33;;;;;;;12.88;3.88;;;10.90;93.10;;;;;;5019285;28;20029;-67
2022/01/21 13:15:59;;;;;;;15.00;3.80;;;10.90;93.10;;;;;;5024243;28;20053;-66
2022/01/21 13:18:35;;;;;;;11.63;2.45;;;10.90;92.90;;;;;;5033325;28;20027;-66
2022/01/21 13:21:10;;;;;;;10.30;2.58;;;10.90;92.90;;;;;;5027308;28;20086;-66
2022/01/21 13:26:17;;;;;;;13.80;3.15;;;11.00;92.90;;;;;;5020222;28;20108;-66
2022/01/21 13:29:03;;;;;;;14.02;2.83;;;10.90;92.70;;;;;;5042856;28;20498;-66
2022/01/21 13:31:49;;;;;;;12.63;2.78;;;10.90;92.50;;;;;;5035265;28;20075;-66
2022/01/21 13:34:36;;;;;;;13.45;2.80;;;11.00;92.70;;;;;;5038010;28;20665;-65
2022/01/21 13:37:04;;;;;;;11.45;2.60;;;11.00;92.30;;;;;;5030146;28;20100;-66
2022/01/21 13:39:31;;;;;;;11.25;2.45;;;11.00;92.70;;;;;;5026872;28;20029;-66
2022/01/21 13:42:09;;;;;;;12.52;3.05;;;11.00;93.10;;;;;;5029719;28;20431;-66
2022/01/21 13:44:52;;;;;;;15.18;3.33;;;11.20;93.30;;;;;;5026609;28;20026;-66
2022/01/21 13:47:32;;;;;;;14.88;3.33;;;11.20;92.90;;;;;;5022213;28;20069;-66
2022/01/21 13:50:13;;;;;;;14.48;2.85;;;11.20;92.10;;;;;;5025230;28;20378;-66
2022/01/21 13:52:43;;;;;;;14.95;3.30;;;11.10;91.70;;;;;;5027559;28;20025;-65
2022/01/21 13:55:21;;;;;;;12.13;2.88;;;11.10;91.60;;;;;;5029240;28;20025;-66
2022/01/21 13:57:47;;;;;;;14.98;2.88;;;11.00;91.60;;;;;;5032648;28;20032;-66
2022/01/21 14:00:13;;;;;;;11.63;3.25;;;11.00;91.60;;;;;;5033220;28;20029;-65
2022/01/21 14:02:39;;;;;;;10.48;3.08;;;11.00;91.70;;;;;;5021185;28;20026;-66